Time;durP1;ratioP1;P1;durP2;ratioP2;P2;SDS_P1;SDS_P2;PMS_P1;PMS_P2;Temp;Humidity;BMP_temperature;BMP_pressure;BME280_temperature;BME280_humidity;BME280_pressure;Samples;Min_cycle;Max_cycle;Signal;HPM_P1;HPM_P2
2022/09/24 00:01:37;;;;;;;14.65;5.93;;;;;;;;;;5047571;28;20025;-65
2022/09/24 00:04:03;;;;;;;16.63;5.72;;;;;;;;;;5048708;28;20029;-65
2022/09/24 00:06:32;;;;;;;11.57;5.47;;;;;;;;;;5049485;28;20078;-66
2022/09/24 00:08:57;;;;;;;9.55;6.13;;;;;;;;;;5052665;28;20488;-65
2022/09/24 00:11:23;;;;;;;9.55;5.38;;;;;;;;;;5068482;28;20223;-65
2022/09/24 00:13:49;;;;;;;16.85;6.57;;;;;;;;;;5045763;28;20116;-65
2022/09/24 00:16:16;;;;;;;12.45;6.63;;;;;;;;;;5047932;28;20020;-65
2022/09/24 00:18:41;;;;;;;11.48;5.93;;;;;;;;;;5047469;28;20021;-65
2022/09/24 00:21:10;;;;;;;16.45;6.97;;;;;;;;;;5051274;28;20024;-65
2022/09/24 00:23:35;;;;;;;13.90;7.05;;;;;;;;;;5048825;28;20453;-65
2022/09/24 00:28:44;;;;;;;15.48;6.00;;;;;;;;;;5051519;28;20279;-65
2022/09/24 00:31:10;;;;;;;16.63;6.03;;;;;;;;;;5061347;28;20017;-65
2022/09/24 00:33:35;;;;;;;15.07;5.50;;;;;;;;;;5056399;28;20370;-65
2022/09/24 00:36:03;;;;;;;12.48;6.10;;;;;;;;;;5051215;28;20267;-65
2022/09/24 00:38:28;;;;;;;10.85;6.00;;;;;;;;;;5052233;28;20021;-65
2022/09/24 00:40:54;;;;;;;10.07;5.85;;;;;;;;;;5051240;28;20031;-65
2022/09/24 00:43:20;;;;;;;13.45;6.68;;;;;;;;;;5054243;28;20153;-65
2022/09/24 00:45:45;;;;;;;17.17;6.60;;;;;;;;;;5064306;28;20029;-65
2022/09/24 00:48:10;;;;;;;13.70;6.40;;;;;;;;;;5052142;28;20017;-65
2022/09/24 00:50:35;;;;;;;11.80;5.85;;;;;;;;;;5050400;28;20275;-65
2022/09/24 00:53:03;;;;;;;33.27;8.67;;;;;;;;;;5062666;28;20154;-65
2022/09/24 00:55:29;;;;;;;11.90;6.60;;;;;;;;;;5053418;28;20671;-65
2022/09/24 00:57:56;;;;;;;10.70;6.20;;;;;;;;;;5052523;28;20024;-65
2022/09/24 01:00:21;;;;;;;14.60;6.75;;;;;;;;;;5057041;28;20017;-64
2022/09/24 01:02:47;;;;;;;16.73;6.32;;;;;;;;;;5060335;28;20492;-65
2022/09/24 01:05:13;;;;;;;10.93;6.18;;;;;;;;;;5049315;28;20477;-65
2022/09/24 01:07:38;;;;;;;17.55;6.90;;;;;;;;;;5058122;28;20257;-64
2022/09/24 01:10:04;;;;;;;9.55;6.03;;;;;;;;;;5052942;28;20032;-64
2022/09/24 01:12:38;;;;;;;19.05;6.22;;;;;;;;;;5053056;28;20096;-64
2022/09/24 01:15:10;;;;;;;13.32;6.28;;;;;;;;;;5052212;28;20024;-65
2022/09/24 01:17:39;;;;;;;11.50;6.15;;;;;;;;;;5056164;28;21107;-65
2022/09/24 01:20:39;;;;;;;11.95;6.00;;;;;;;;;;5052693;28;20041;-65
2022/09/24 01:23:07;;;;;;;9.13;5.03;;;;;;;;;;4980553;28;20034;-65
2022/09/24 01:25:58;;;;;;;8.52;5.50;;;;;;;;;;5035746;28;20041;-65
2022/09/24 01:28:24;;;;;;;13.75;6.28;;;;;;;;;;5050819;28;20009;-65
2022/09/24 01:30:51;;;;;;;11.63;6.57;;;;;;;;;;5053299;28;20065;-65
2022/09/24 01:33:18;;;;;;;12.05;6.22;;;;;;;;;;5054157;28;20027;-65
2022/09/24 01:35:46;;;;;;;11.75;6.53;;;;;;;;;;5034668;28;20025;-65
2022/09/24 01:38:16;;;;;;;12.85;6.18;;;;;;;;;;5052763;28;20017;-65
2022/09/24 01:40:44;;;;;;;11.68;6.60;;;;;;;;;;5051793;28;20056;-65
2022/09/24 01:43:10;;;;;;;12.82;6.10;;;;;;;;;;5049110;28;20473;-65
2022/09/24 01:45:37;;;;;;;11.82;5.97;;;;;;;;;;5064110;28;20033;-65
2022/09/24 01:48:03;;;;;;;12.93;6.40;;;;;;;;;;5048524;28;20017;-65
2022/09/24 01:50:29;;;;;;;14.48;5.05;;;;;;;;;;5055509;28;20015;-65
2022/09/24 01:52:59;;;;;;;9.82;5.28;;;;;;;;;;5055252;28;20229;-65
2022/09/24 01:55:25;;;;;;;17.70;4.87;;;;;;;;;;5048132;28;20099;-65
2022/09/24 01:57:53;;;;;;;7.90;5.28;;;;;;;;;;5050578;28;20200;-65
2022/09/24 02:00:20;;;;;;;8.35;4.93;;;;;;;;;;5058103;28;20024;-65
2022/09/24 02:02:45;;;;;;;10.90;4.80;;;;;;;;;;5047360;28;20048;-65
2022/09/24 02:05:17;;;;;;;16.17;5.90;;;;;;;;;;5050098;28;20064;-65
2022/09/24 02:08:06;;;;;;;10.75;4.93;;;;;;;;;;5050865;28;20071;-65
2022/09/24 02:10:36;;;;;;;8.38;4.72;;;;;;;;;;5044889;28;20451;-65
2022/09/24 02:13:04;;;;;;;9.35;4.82;;;;;;;;;;5054896;28;20104;-65
2022/09/24 02:15:32;;;;;;;10.95;5.88;;;;;;;;;;5055173;28;20099;-65
2022/09/24 02:18:00;;;;;;;13.18;5.45;;;;;;;;;;5065380;28;20074;-65
2022/09/24 02:20:26;;;;;;;10.35;6.10;;;;;;;;;;5054415;28;20024;-65
2022/09/24 02:22:53;;;;;;;11.77;4.95;;;;;;;;;;5054662;28;20017;-65
2022/09/24 02:25:29;;;;;;;9.43;5.57;;;;;;;;;;5051952;28;20024;-65
2022/09/24 02:27:55;;;;;;;15.68;5.57;;;;;;;;;;5053153;28;20074;-65
2022/09/24 02:30:20;;;;;;;13.15;5.15;;;;;;;;;;5046889;28;20012;-65
2022/09/24 02:32:45;;;;;;;14.38;5.18;;;;;;;;;;5053413;28;20103;-65
2022/09/24 02:35:11;;;;;;;10.15;4.95;;;;;;;;;;5055536;28;20118;-65
2022/09/24 02:37:38;;;;;;;7.65;4.47;;;;;;;;;;5050155;28;20500;-65
2022/09/24 02:40:04;;;;;;;13.38;5.00;;;;;;;;;;5054772;28;20078;-65
2022/09/24 02:42:30;;;;;;;9.90;4.63;;;;;;;;;;5049634;28;20032;-65
2022/09/24 02:44:56;;;;;;;6.40;4.60;;;;;;;;;;5048895;28;20025;-65
2022/09/24 02:47:21;;;;;;;15.57;4.78;;;;;;;;;;5052999;28;20028;-65
2022/09/24 02:49:46;;;;;;;10.10;4.77;;;;;;;;;;5060852;28;20021;-65
2022/09/24 02:52:12;;;;;;;12.57;5.13;;;;;;;;;;5047789;28;21638;-65
2022/09/24 02:54:37;;;;;;;8.88;4.75;;;;;;;;;;5054668;28;20275;-65
2022/09/24 02:57:03;;;;;;;10.82;5.00;;;;;;;;;;5047412;28;20017;-65
2022/09/24 02:59:28;;;;;;;11.48;5.40;;;;;;;;;;5054892;28;20389;-65
2022/09/24 03:01:53;;;;;;;7.13;4.30;;;;;;;;;;5051373;28;20115;-65
2022/09/24 03:04:18;;;;;;;11.80;5.33;;;;;;;;;;5050706;28;20282;-65
2022/09/24 03:06:43;;;;;;;13.13;4.75;;;;;;;;;;5049757;28;20276;-65
2022/09/24 03:09:10;;;;;;;19.92;5.82;;;;;;;;;;5059530;28;20029;-65
2022/09/24 03:11:35;;;;;;;11.43;5.28;;;;;;;;;;5056162;28;20079;-65
2022/09/24 03:14:01;;;;;;;13.00;5.50;;;;;;;;;;5049746;28;20404;-65
2022/09/24 03:16:26;;;;;;;9.65;5.20;;;;;;;;;;5049103;28;20286;-65
2022/09/24 03:18:51;;;;;;;9.63;4.72;;;;;;;;;;5051890;28;20021;-65
2022/09/24 03:21:18;;;;;;;8.93;4.47;;;;;;;;;;5051208;28;20016;-65
2022/09/24 03:23:43;;;;;;;20.65;5.38;;;;;;;;;;5057333;28;20283;-65
2022/09/24 03:26:08;;;;;;;11.77;5.38;;;;;;;;;;5054868;28;20036;-65
2022/09/24 03:28:34;;;;;;;8.15;5.60;;;;;;;;;;5050120;28;20358;-65
2022/09/24 03:30:59;;;;;;;16.47;6.00;;;;;;;;;;5047236;28;20044;-65
2022/09/24 03:33:34;;;;;;;7.93;4.97;;;;;;;;;;5049604;28;20760;-65
2022/09/24 03:36:05;;;;;;;11.63;4.90;;;;;;;;;;5053275;28;20028;-65
2022/09/24 03:38:31;;;;;;;10.00;5.43;;;;;;;;;;5061972;28;20384;-65
2022/09/24 03:40:56;;;;;;;13.18;5.07;;;;;;;;;;5050232;28;20108;-65
2022/09/24 03:43:21;;;;;;;15.05;5.13;;;;;;;;;;5049793;28;20491;-65
2022/09/24 03:45:48;;;;;;;9.10;4.75;;;;;;;;;;5055598;28;20469;-65
2022/09/24 03:48:13;;;;;;;10.27;5.03;;;;;;;;;;5049179;28;20092;-65
2022/09/24 03:50:38;;;;;;;10.73;5.57;;;;;;;;;;5055919;28;20104;-65
2022/09/24 03:53:03;;;;;;;16.23;5.43;;;;;;;;;;5048539;28;20458;-64
2022/09/24 03:55:29;;;;;;;13.37;6.07;;;;;;;;;;5050441;28;20024;-65
2022/09/24 03:57:54;;;;;;;18.93;5.67;;;;;;;;;;5047762;28;20263;-65
2022/09/24 04:00:19;;;;;;;9.93;5.93;;;;;;;;;;5063136;28;20365;-64
2022/09/24 04:02:45;;;;;;;9.32;4.80;;;;;;;;;;5056723;28;20271;-64
2022/09/24 04:05:10;;;;;;;13.23;5.50;;;;;;;;;;5052602;28;20028;-65
2022/09/24 04:07:35;;;;;;;11.13;6.10;;;;;;;;;;5060684;28;20027;-64
2022/09/24 04:10:00;;;;;;;13.53;6.07;;;;;;;;;;5051255;28;20021;-64
2022/09/24 04:12:26;;;;;;;14.07;6.32;;;;;;;;;;5054323;28;20282;-64
2022/09/24 04:14:51;;;;;;;13.45;5.95;;;;;;;;;;5052870;28;20041;-65
2022/09/24 04:17:16;;;;;;;14.95;6.30;;;;;;;;;;5054341;28;20078;-64
2022/09/24 04:19:42;;;;;;;19.23;6.27;;;;;;;;;;5057245;28;20074;-64
2022/09/24 04:22:07;;;;;;;10.82;5.47;;;;;;;;;;5050700;28;20354;-64
2022/09/24 04:24:33;;;;;;;12.37;5.93;;;;;;;;;;5074341;22;20454;-69
2022/09/24 04:26:58;;;;;;;13.20;6.83;;;;;;;;;;5050935;28;20398;-69
2022/09/24 04:29:23;;;;;;;23.37;6.30;;;;;;;;;;5056143;28;20278;-70
2022/09/24 04:31:48;;;;;;;15.40;6.97;;;;;;;;;;5049972;28;20743;-69
2022/09/24 04:34:13;;;;;;;13.03;5.93;;;;;;;;;;5061779;28;20342;-69
2022/09/24 04:36:39;;;;;;;18.58;6.68;;;;;;;;;;5055983;28;20778;-68
2022/09/24 04:39:04;;;;;;;11.57;6.47;;;;;;;;;;5055922;28;20115;-69
2022/09/24 04:41:29;;;;;;;12.05;6.13;;;;;;;;;;5054311;28;20271;-69
2022/09/24 04:43:58;;;;;;;19.67;7.00;;;;;;;;;;5051942;28;20033;-69
2022/09/24 04:46:23;;;;;;;20.30;6.78;;;;;;;;;;5049554;28;20826;-68
2022/09/24 04:48:48;;;;;;;12.73;6.63;;;;;;;;;;5052569;28;20021;-69
2022/09/24 04:51:15;;;;;;;10.05;6.28;;;;;;;;;;5052376;28;20039;-69
2022/09/24 04:53:40;;;;;;;14.65;6.80;;;;;;;;;;5052212;28;20017;-69
2022/09/24 04:56:10;;;;;;;14.30;6.57;;;;;;;;;;5051658;28;20029;-69
2022/09/24 04:58:35;;;;;;;15.27;5.90;;;;;;;;;;5053071;28;20324;-68
2022/09/24 05:01:02;;;;;;;12.95;5.97;;;;;;;;;;5052292;28;20028;-69
2022/09/24 05:03:28;;;;;;;12.98;6.15;;;;;;;;;;5058172;28;20470;-69
2022/09/24 05:05:53;;;;;;;13.57;7.07;;;;;;;;;;5052232;28;20047;-69
2022/09/24 05:08:18;;;;;;;16.13;6.20;;;;;;;;;;5051699;28;20290;-69
2022/09/24 05:10:43;;;;;;;17.70;6.83;;;;;;;;;;5053604;28;20024;-69
2022/09/24 05:13:08;;;;;;;25.42;7.35;;;;;;;;;;5049633;28;20354;-69
2022/09/24 05:15:34;;;;;;;13.93;6.97;;;;;;;;;;5051310;28;20036;-69
2022/09/24 05:17:59;;;;;;;13.85;6.55;;;;;;;;;;5056830;28;20306;-68
2022/09/24 05:20:24;;;;;;;12.70;6.27;;;;;;;;;;5051096;28;20366;-69
2022/09/24 05:22:49;;;;;;;14.17;6.53;;;;;;;;;;5051011;28;20282;-69
2022/09/24 05:25:16;;;;;;;13.10;5.93;;;;;;;;;;5051932;28;20303;-69
2022/09/24 05:27:45;;;;;;;10.27;6.00;;;;;;;;;;5049708;28;20021;-69
2022/09/24 05:30:11;;;;;;;17.00;6.68;;;;;;;;;;5059421;28;20027;-68
2022/09/24 05:32:36;;;;;;;12.85;7.15;;;;;;;;;;5058117;28;20021;-69
2022/09/24 05:35:01;;;;;;;14.60;7.13;;;;;;;;;;5063461;28;20088;-69
2022/09/24 05:37:26;;;;;;;13.38;6.50;;;;;;;;;;5051261;28;20428;-69
2022/09/24 05:39:52;;;;;;;11.83;5.70;;;;;;;;;;5050981;28;20481;-69
2022/09/24 05:42:18;;;;;;;13.73;6.57;;;;;;;;;;5050422;28;20303;-68
2022/09/24 05:44:43;;;;;;;16.15;7.13;;;;;;;;;;5053207;28;20092;-69
2022/09/24 05:47:08;;;;;;;13.25;6.28;;;;;;;;;;5050227;28;20381;-68
2022/09/24 05:49:34;;;;;;;11.20;6.43;;;;;;;;;;5050417;28;20519;-68
2022/09/24 05:51:59;;;;;;;11.40;6.18;;;;;;;;;;5049547;28;20028;-70
2022/09/24 05:54:24;;;;;;;13.00;5.72;;;;;;;;;;5070616;28;20373;-69
2022/09/24 05:56:49;;;;;;;15.68;6.80;;;;;;;;;;5052634;28;20511;-68
2022/09/24 05:59:15;;;;;;;14.93;6.07;;;;;;;;;;5057677;28;20028;-69
2022/09/24 06:01:40;;;;;;;10.18;5.82;;;;;;;;;;5049585;28;20601;-69
2022/09/24 06:04:05;;;;;;;11.97;7.00;;;;;;;;;;5052164;28;20036;-69
2022/09/24 06:06:31;;;;;;;13.95;7.25;;;;;;;;;;5051451;28;20390;-68
2022/09/24 06:08:56;;;;;;;12.07;7.15;;;;;;;;;;5055489;28;20028;-69
2022/09/24 06:11:21;;;;;;;16.57;6.47;;;;;;;;;;5049374;28;20341;-69
2022/09/24 06:13:47;;;;;;;16.08;7.20;;;;;;;;;;5053584;28;20272;-68
2022/09/24 06:16:12;;;;;;;18.15;8.57;;;;;;;;;;5051480;28;20427;-67
2022/09/24 06:18:38;;;;;;;14.37;6.40;;;;;;;;;;5053340;28;20021;-68
2022/09/24 06:21:06;;;;;;;11.88;5.95;;;;;;;;;;5051124;28;20354;-67
2022/09/24 06:23:31;;;;;;;13.07;6.80;;;;;;;;;;5068261;28;20024;-69
2022/09/24 06:25:57;;;;;;;11.45;6.72;;;;;;;;;;5048796;28;20036;-68
2022/09/24 06:28:24;;;;;;;10.55;6.22;;;;;;;;;;5051308;28;20025;-68
2022/09/24 06:30:49;;;;;;;14.75;7.20;;;;;;;;;;5047853;28;20028;-67
2022/09/24 06:33:14;;;;;;;21.40;7.45;;;;;;;;;;5051079;28;20039;-67
2022/09/24 06:35:41;;;;;;;16.98;7.35;;;;;;;;;;5046185;28;20013;-68
2022/09/24 06:38:07;;;;;;;15.35;7.70;;;;;;;;;;5057828;28;20032;-68
2022/09/24 06:40:33;;;;;;;13.65;7.38;;;;;;;;;;5050645;28;20029;-69
2022/09/24 06:42:58;;;;;;;11.27;7.15;;;;;;;;;;5046120;28;20040;-68
2022/09/24 06:45:24;;;;;;;18.50;6.70;;;;;;;;;;5045926;28;20043;-68
2022/09/24 06:47:53;;;;;;;11.05;7.30;;;;;;;;;;5051667;28;20366;-68
2022/09/24 06:50:18;;;;;;;15.95;6.47;;;;;;;;;;5047956;28;20020;-68
2022/09/24 06:52:43;;;;;;;14.90;6.85;;;;;;;;;;5050702;28;20333;-68
2022/09/24 06:55:08;;;;;;;14.70;6.77;;;;;;;;;;5046337;28;20477;-68
2022/09/24 06:57:33;;;;;;;16.50;6.87;;;;;;;;;;5049511;28;20276;-68
2022/09/24 06:59:58;;;;;;;11.70;6.53;;;;;;;;;;5047800;28;20862;-68
2022/09/24 07:02:24;;;;;;;12.68;6.22;;;;;;;;;;5052429;28;20274;-68
2022/09/24 07:04:49;;;;;;;12.10;6.38;;;;;;;;;;5040592;28;20020;-67
2022/09/24 07:07:31;;;;;;;16.33;6.60;;;;;;;;;;5048993;28;20039;-68
2022/09/24 07:09:56;;;;;;;9.45;5.88;;;;;;;;;;5049555;28;20754;-68
2022/09/24 07:12:22;;;;;;;14.38;6.88;;;;;;;;;;5050682;28;20151;-68
2022/09/24 07:14:47;;;;;;;12.15;5.88;;;;;;;;;;5047577;28;20017;-69
2022/09/24 07:17:12;;;;;;;14.32;6.45;;;;;;;;;;5030187;28;20039;-68
2022/09/24 07:19:38;;;;;;;15.93;6.80;;;;;;;;;;5051257;28;20025;-65
2022/09/24 07:22:03;;;;;;;19.10;10.25;;;;;;;;;;5057634;28;20100;-67
2022/09/24 07:24:28;;;;;;;17.83;7.80;;;;;;;;;;5054486;28;20029;-69
2022/09/24 07:26:54;;;;;;;14.07;7.73;;;;;;;;;;5048252;28;20021;-66
2022/09/24 07:29:19;;;;;;;16.98;7.97;;;;;;;;;;5046458;28;20270;-71
2022/09/24 07:31:44;;;;;;;18.73;6.65;;;;;;;;;;5050968;28;20025;-65
2022/09/24 07:34:09;;;;;;;14.73;6.75;;;;;;;;;;5055109;28;20025;-70
2022/09/24 07:36:35;;;;;;;14.93;7.73;;;;;;;;;;5054969;28;20021;-65
2022/09/24 07:39:00;;;;;;;11.32;7.35;;;;;;;;;;5054650;28;20363;-66
2022/09/24 07:41:25;;;;;;;14.43;7.13;;;;;;;;;;5053589;28;20592;-65
2022/09/24 07:43:50;;;;;;;9.05;4.75;;;;;;;;;;5052333;28;20396;-66
2022/09/24 07:46:15;;;;;;;14.23;6.93;;;;;;;;;;5051794;28;20126;-71
2022/09/24 07:48:41;;;;;;;20.40;8.10;;;;;;;;;;5051704;28;20260;-67
2022/09/24 07:51:09;;;;;;;19.95;6.85;;;;;;;;;;5058568;28;20332;-67
2022/09/24 07:53:34;;;;;;;16.80;6.10;;;;;;;;;;5055388;28;20013;-67
2022/09/24 07:56:00;;;;;;;14.03;7.33;;;;;;;;;;5054167;28;20031;-68
2022/09/24 07:58:25;;;;;;;14.32;6.88;;;;;;;;;;5052631;28;20743;-73
2022/09/24 08:00:50;;;;;;;12.32;6.35;;;;;;;;;;5054270;28;20060;-67
2022/09/24 08:03:15;;;;;;;17.15;6.72;;;;;;;;;;5055638;28;20024;-67
2022/09/24 08:05:43;;;;;;;11.80;6.27;;;;;;;;;;5051252;28;20021;-69
2022/09/24 08:08:09;;;;;;;13.45;6.93;;;;;;;;;;5051703;28;20255;-66
2022/09/24 08:10:34;;;;;;;10.63;5.40;;;;;;;;;;5055161;28;20380;-69
2022/09/24 08:13:02;;;;;;;11.73;6.33;;;;;;;;;;5052833;28;20271;-67
2022/09/24 08:15:27;;;;;;;12.38;6.75;;;;;;;;;;5053844;28;20317;-67
2022/09/24 08:17:52;;;;;;;15.97;7.37;;;;;;;;;;5057097;28;20020;-72
2022/09/24 08:20:17;;;;;;;11.70;6.53;;;;;;;;;;5051849;28;20283;-66
2022/09/24 08:22:43;;;;;;;16.88;6.68;;;;;;;;;;5056084;28;20256;-73
2022/09/24 08:25:08;;;;;;;12.27;7.22;;;;;;;;;;5051286;28;20017;-70
2022/09/24 08:27:35;;;;;;;12.82;7.10;;;;;;;;;;5068151;28;20021;-68
2022/09/24 08:30:01;;;;;;;17.35;7.22;;;;;;;;;;5058387;28;20021;-65
2022/09/24 08:32:28;;;;;;;17.48;7.15;;;;;;;;;;5056905;28;20373;-65
2022/09/24 08:34:53;;;;;;;9.90;6.50;;;;;;;;;;5053508;28;20023;-69
2022/09/24 08:37:18;;;;;;;15.32;7.28;;;;;;;;;;5054877;28;20029;-66
2022/09/24 08:39:43;;;;;;;13.80;7.10;;;;;;;;;;5050440;28;20031;-67
2022/09/24 08:42:26;;;;;;;12.83;7.37;;;;;;;;;;5052947;28;20279;-66
2022/09/24 08:47:47;;;;;;;15.70;6.97;;;;;;;;;;5051824;28;20165;-66
2022/09/24 08:50:12;;;;;;;15.20;7.10;;;;;;;;;;5050163;28;20028;-67
2022/09/24 08:52:44;;;;;;;18.27;7.93;;;;;;;;;;5052785;28;20013;-66
2022/09/24 08:55:16;;;;;;;13.20;8.02;;;;;;;;;;5051021;28;20302;-69
2022/09/24 08:57:54;;;;;;;14.32;7.55;;;;;;;;;;5047699;28;20505;-69
2022/09/24 09:00:19;;;;;;;18.95;7.88;;;;;;;;;;5049683;28;20025;-69
2022/09/24 09:03:00;;;;;;;19.77;9.43;;;;;;;;;;5056971;28;20035;-66
2022/09/24 09:05:37;;;;;;;18.92;9.25;;;;;;;;;;5050600;28;20275;-68
2022/09/24 09:08:35;;;;;;;13.23;8.65;;;;;;;;;;5052464;28;20027;-69
2022/09/24 09:11:02;;;;;;;20.55;9.43;;;;;;;;;;5017290;28;20517;-66
2022/09/24 09:13:33;;;;;;;15.95;8.95;;;;;;;;;;5052322;28;20470;-66
2022/09/24 09:16:12;;;;;;;14.43;8.35;;;;;;;;;;5049207;28;20063;-69
2022/09/24 09:18:41;;;;;;;16.08;8.95;;;;;;;;;;5031777;28;20056;-67
2022/09/24 09:21:11;;;;;;;18.27;9.20;;;;;;;;;;5057761;28;20029;-69
2022/09/24 09:23:43;;;;;;;14.77;7.80;;;;;;;;;;5047312;28;20029;-71
2022/09/24 09:26:10;;;;;;;23.88;9.63;;;;;;;;;;5049420;28;20021;-65
2022/09/24 09:28:35;;;;;;;14.77;8.35;;;;;;;;;;5049944;28;20021;-66
2022/09/24 09:31:17;;;;;;;18.15;9.25;;;;;;;;;;5047173;28;20024;-65
2022/09/24 09:33:45;;;;;;;20.25;8.52;;;;;;;;;;5045258;28;20091;-65
2022/09/24 09:36:10;;;;;;;19.30;9.77;;;;;;;;;;5048860;28;20436;-65
2022/09/24 09:38:46;;;;;;;17.10;9.75;;;;;;;;;;5050770;28;20021;-68
2022/09/24 09:41:30;;;;;;;21.95;11.32;;;;;;;;;;5048462;28;20052;-67
2022/09/24 09:43:59;;;;;;;17.75;10.57;;;;;;;;;;5047989;28;20028;-68
2022/09/24 09:46:28;;;;;;;17.40;10.35;;;;;;;;;;5050117;28;20021;-69
2022/09/24 09:48:58;;;;;;;22.08;10.55;;;;;;;;;;5048931;28;20304;-67
2022/09/24 09:51:24;;;;;;;24.73;11.45;;;;;;;;;;5044921;28;20017;-68
2022/09/24 09:54:00;;;;;;;20.83;10.80;;;;;;;;;;5047372;28;20120;-67
2022/09/24 09:56:30;;;;;;;22.80;12.07;;;;;;;;;;5043681;28;20036;-67
2022/09/24 09:59:05;;;;;;;22.45;11.57;;;;;;;;;;5041749;28;20024;-68
2022/09/24 10:01:32;;;;;;;21.08;12.25;;;;;;;;;;5045945;28;20049;-67
2022/09/24 10:04:01;;;;;;;28.63;13.05;;;;;;;;;;5049020;28;20025;-69
2022/09/24 10:06:28;;;;;;;25.08;12.15;;;;;;;;;;5049806;28;20079;-68
2022/09/24 10:09:05;;;;;;;27.23;12.98;;;;;;;;;;5048608;28;20536;-68
2022/09/24 10:11:30;;;;;;;17.75;10.32;;;;;;;;;;5049999;28;20049;-68
2022/09/24 10:14:05;;;;;;;17.97;10.40;;;;;;;;;;5049651;28;20503;-68
2022/09/24 10:16:34;;;;;;;20.35;10.25;;;;;;;;;;5044517;28;20333;-68
2022/09/24 10:19:00;;;;;;;21.27;10.80;;;;;;;;;;5027153;28;20429;-68
2022/09/24 10:21:35;;;;;;;22.50;11.20;;;;;;;;;;5049996;28;20033;-68
2022/09/24 10:24:01;;;;;;;25.23;12.32;;;;;;;;;;5095748;22;20288;-64
2022/09/24 10:26:37;;;;;;;23.80;11.85;;;;;;;;;;5049417;28;20029;-66
2022/09/24 10:31:47;;;;;;;19.20;10.32;;;;;;;;;;5050344;28;20044;-64
2022/09/24 10:34:25;;;;;;;20.80;9.63;;;;;;;;;;5050227;28;20017;-64
2022/09/24 10:36:52;;;;;;;20.65;11.05;;;;;;;;;;5047333;28;20033;-64
2022/09/24 10:39:19;;;;;;;23.60;10.80;;;;;;;;;;5046616;28;20104;-64
2022/09/24 10:41:45;;;;;;;22.60;11.50;;;;;;;;;;5049575;28;20103;-64
2022/09/24 10:44:11;;;;;;;28.30;11.50;;;;;;;;;;5051849;28;20120;-65
2022/09/24 10:46:54;;;;;;;20.00;10.90;;;;;;;;;;5050485;28;20070;-64
2022/09/24 10:49:28;;;;;;;24.17;11.32;;;;;;;;;;5053975;28;20045;-64
2022/09/24 10:52:14;;;;;;;23.08;10.82;;;;;;;;;;5055838;28;20025;-65
2022/09/24 10:54:55;;;;;;;22.85;11.00;;;;;;;;;;5047853;28;20021;-65
2022/09/24 10:57:27;;;;;;;19.73;9.85;;;;;;;;;;5057580;28;20029;-64
2022/09/24 11:00:01;;;;;;;18.70;10.75;;;;;;;;;;5052154;28;20104;-64
2022/09/24 11:02:41;;;;;;;19.40;11.00;;;;;;;;;;5030445;28;20025;-64
2022/09/24 11:05:22;;;;;;;24.67;10.87;;;;;;;;;;5052537;28;20051;-64
2022/09/24 11:07:53;;;;;;;21.85;10.95;;;;;;;;;;5052292;28;20078;-64
2022/09/24 11:10:35;;;;;;;24.58;12.60;;;;;;;;;;5050995;28;20017;-64
2022/09/24 11:13:19;;;;;;;18.45;9.85;;;;;;;;;;5052743;28;20019;-64
2022/09/24 11:15:49;;;;;;;16.23;9.65;;;;;;;;;;5048449;28;20048;-64
2022/09/24 11:18:26;;;;;;;24.65;11.82;;;;;;;;;;5047383;28;20012;-64
2022/09/24 11:20:51;;;;;;;24.05;10.10;;;;;;;;;;5051582;28;20025;-64
2022/09/24 11:23:23;;;;;;;23.67;10.63;;;;;;;;;;5050305;28;20100;-64
2022/09/24 11:25:55;;;;;;;25.75;12.02;;;;;;;;;;5051127;28;20128;-64
2022/09/24 11:28:34;;;;;;;25.30;12.05;;;;;;;;;;5044990;28;20024;-64
2022/09/24 11:31:18;;;;;;;19.92;10.15;;;;;;;;;;5050279;28;20018;-63
2022/09/24 11:33:44;;;;;;;25.65;10.88;;;;;;;;;;5049121;28;20012;-64
2022/09/24 11:36:25;;;;;;;21.38;11.25;;;;;;;;;;5049469;28;20028;-63
2022/09/24 11:39:02;;;;;;;23.35;10.77;;;;;;;;;;5046609;28;20366;-64
2022/09/24 11:41:36;;;;;;;18.77;11.20;;;;;;;;;;5046448;28;20014;-64
2022/09/24 11:44:10;;;;;;;32.17;12.18;;;;;;;;;;5035260;28;20163;-65
2022/09/24 11:46:46;;;;;;;28.50;12.77;;;;;;;;;;5049466;28;20656;-64
2022/09/24 11:49:23;;;;;;;29.17;13.82;;;;;;;;;;5049427;28;20071;-65
2022/09/24 11:51:54;;;;;;;26.98;14.00;;;;;;;;;;5046366;28;20044;-65
2022/09/24 11:54:31;;;;;;;27.92;14.80;;;;;;;;;;5047510;28;20021;-65
2022/09/24 11:57:01;;;;;;;25.83;14.35;;;;;;;;;;5052222;28;20067;-65
2022/09/24 11:59:30;;;;;;;27.75;13.68;;;;;;;;;;5045698;28;20473;-65
2022/09/24 12:01:59;;;;;;;30.38;13.70;;;;;;;;;;5049723;28;20029;-65
2022/09/24 12:04:35;;;;;;;25.45;13.77;;;;;;;;;;5047923;28;20032;-65
2022/09/24 12:07:06;;;;;;;25.58;13.40;;;;;;;;;;5044210;28;20481;-65
2022/09/24 12:09:38;;;;;;;23.75;13.15;;;;;;;;;;5054387;28;20016;-65
2022/09/24 12:12:08;;;;;;;27.35;14.75;;;;;;;;;;5047281;28;20017;-64
2022/09/24 12:14:48;;;;;;;24.92;13.57;;;;;;;;;;5046692;28;20021;-65
2022/09/24 12:17:14;;;;;;;;;;;;;;;;;;5047115;28;20040;-65
2022/09/24 12:19:57;;;;;;;29.42;13.38;;;;;;;;;;5050895;28;19912;-65
2022/09/24 12:22:22;;;;;;;25.50;14.55;;;;;;;;;;5045612;28;20028;-65
2022/09/24 12:24:52;;;;;;;27.02;13.32;;;;;;;;;;5048632;28;20401;-65
2022/09/24 12:27:20;;;;;;;23.33;14.35;;;;;;;;;;5054164;28;20143;-65
2022/09/24 12:32:54;;;;;;;23.10;12.18;;;;;;;;;;5045642;28;20388;-65
2022/09/24 12:35:19;;;;;;;24.60;12.00;;;;;;;;;;5051885;28;20017;-65
2022/09/24 12:37:46;;;;;;;20.83;11.55;;;;;;;;;;5050364;28;20433;-65
2022/09/24 12:40:11;;;;;;;19.63;11.40;;;;;;;;;;5049221;28;20025;-65
2022/09/24 12:42:42;;;;;;;21.48;11.27;;;;;;;;;;5051994;28;20031;-65
2022/09/24 12:45:13;;;;;;;22.80;12.07;;;;;;;;;;5051652;28;20484;-65
2022/09/24 12:47:44;;;;;;;27.55;11.30;;;;;;;;;;5049226;28;20032;-65
2022/09/24 12:50:27;;;;;;;23.27;11.90;;;;;;;;;;5059456;28;20009;-65
2022/09/24 12:52:53;;;;;;;21.83;12.07;;;;;;;;;;5050365;28;20060;-65
2022/09/24 12:55:23;;;;;;;18.20;10.30;;;;;;;;;;5052209;28;20021;-65
2022/09/24 12:57:54;;;;;;;20.42;11.05;;;;;;;;;;5051380;28;20032;-65
2022/09/24 13:00:48;;;;;;;23.45;10.85;;;;;;;;;;5041325;28;20025;-65
2022/09/24 13:03:31;;;;;;;19.75;11.43;;;;;;;;;;5034649;28;20514;-65
2022/09/24 13:05:59;;;;;;;24.20;12.52;;;;;;;;;;5048423;28;20024;-65
2022/09/24 13:08:25;;;;;;;24.60;11.80;;;;;;;;;;5050967;28;20036;-65
2022/09/24 13:10:58;;;;;;;21.05;9.95;;;;;;;;;;5045004;28;20020;-65
2022/09/24 13:13:24;;;;;;;19.95;10.77;;;;;;;;;;5044571;28;20021;-65
2022/09/24 13:16:01;;;;;;;22.13;10.45;;;;;;;;;;5047911;28;20021;-65
2022/09/24 13:18:26;;;;;;;18.17;10.02;;;;;;;;;;5029043;28;20392;-65
2022/09/24 13:20:56;;;;;;;18.90;11.02;;;;;;;;;;5051876;28;20013;-65
2022/09/24 13:23:21;;;;;;;22.90;11.05;;;;;;;;;;5053094;28;20542;-65
2022/09/24 13:25:54;;;;;;;18.63;10.87;;;;;;;;;;5054122;28;20116;-65
2022/09/24 13:28:26;;;;;;;17.52;10.80;;;;;;;;;;5051670;28;20284;-65
2022/09/24 13:31:11;;;;;;;23.35;11.73;;;;;;;;;;5052251;28;20354;-66
2022/09/24 13:33:44;;;;;;;24.42;12.77;;;;;;;;;;5045903;28;20075;-65
2022/09/24 13:36:10;;;;;;;23.35;11.68;;;;;;;;;;5051433;28;20059;-66
2022/09/24 13:38:54;;;;;;;24.17;12.45;;;;;;;;;;5056460;28;20062;-65
2022/09/24 13:41:38;;;;;;;23.50;11.15;;;;;;;;;;5067185;28;20607;-66
2022/09/24 13:44:06;;;;;;;21.13;11.18;;;;;;;;;;5058995;28;20474;-64
2022/09/24 13:46:33;;;;;;;21.65;10.70;;;;;;;;;;5049481;28;20430;-65
2022/09/24 13:49:07;;;;;;;19.38;11.77;;;;;;;;;;5049641;28;20017;-64
2022/09/24 13:51:33;;;;;;;19.65;11.57;;;;;;;;;;5049732;28;20032;-65
2022/09/24 13:54:11;;;;;;;20.50;11.82;;;;;;;;;;5052982;28;20022;-66
2022/09/24 13:56:37;;;;;;;17.98;11.68;;;;;;;;;;5032052;28;20017;-66
2022/09/24 13:59:05;;;;;;;18.30;10.88;;;;;;;;;;5053678;28;20103;-65
2022/09/24 14:01:33;;;;;;;19.45;10.90;;;;;;;;;;5049662;28;20382;-65
2022/09/24 14:04:01;;;;;;;20.15;10.60;;;;;;;;;;5046373;28;20496;-65
2022/09/24 14:06:37;;;;;;;17.80;9.85;;;;;;;;;;5048092;28;20025;-65
2022/09/24 14:09:13;;;;;;;19.90;10.77;;;;;;;;;;5047553;28;20017;-67
2022/09/24 14:11:46;;;;;;;24.80;11.00;;;;;;;;;;5047597;28;20025;-66
2022/09/24 14:14:15;;;;;;;19.88;10.32;;;;;;;;;;5046926;28;20035;-65
2022/09/24 14:16:41;;;;;;;22.92;11.05;;;;;;;;;;5048299;28;20070;-65
2022/09/24 14:19:12;;;;;;;24.50;11.43;;;;;;;;;;5050037;28;20381;-65
2022/09/24 14:21:53;;;;;;;17.75;10.30;;;;;;;;;;5050673;28;20306;-65
2022/09/24 14:24:19;;;;;;;17.40;10.00;;;;;;;;;;5049992;28;20078;-65
2022/09/24 14:26:49;;;;;;;17.75;10.13;;;;;;;;;;5049957;28;20419;-65
2022/09/24 14:29:16;;;;;;;21.65;10.80;;;;;;;;;;5050299;28;20441;-65
2022/09/24 14:31:49;;;;;;;17.60;10.23;;;;;;;;;;5049296;28;20017;-65
2022/09/24 14:34:41;;;;;;;19.58;10.82;;;;;;;;;;5048209;28;20013;-65
2022/09/24 14:37:17;;;;;;;22.05;11.18;;;;;;;;;;5045891;28;20041;-66
2022/09/24 14:39:44;;;;;;;18.27;11.10;;;;;;;;;;5047449;28;20477;-64
2022/09/24 14:42:11;;;;;;;18.65;10.63;;;;;;;;;;5046203;28;20103;-64
2022/09/24 14:44:39;;;;;;;16.58;9.45;;;;;;;;;;5046446;28;20386;-66
2022/09/24 14:47:04;;;;;;;12.95;8.30;;;;;;;;;;5048348;28;20020;-65